Nearby METAR Reports

(scroll for additional cities)

KPSP - Palm Springs, California, USA
Distance from station: WNW 7mi, 11km
Updated: Mon, 18-Jun-2018 3:53am PDT
Clear
Clear
 Wind from varies
Wind: varies 6 mph , 9 km/h
Temperature: 70°F , 21°C
Dew Point: 45°F , 7°C
Humidity: 40%
Barometer: 29.82 inHg , 1009.8 hPa
Clouds: Clear
Visibility: 10 miles , 16 km
2018/06/18 10:53 KPSP 181053Z AUTO VRB05KT 10SM CLR 21/07 A2982 RMK AO2 SLP096 T02060072
KTRM - Thermal/Palm Spg, California, USA
Distance from station: SE 16mi, 26km
Updated: Mon, 18-Jun-2018 3:52am PDT
Clear
Clear
 Wind from NNW
Wind: NNW 10 mph , 17 km/h
Temperature: 70°F , 21°C
Dew Point: 46°F , 8°C
Humidity: 43%
Barometer: 29.78 inHg , 1008.5 hPa
Clouds: Clear
Visibility: 10 miles , 16 km
2018/06/18 10:52 KTRM 181052Z AUTO 33009KT 10SM CLR 21/08 A2978 RMK AO2 SLP085 T02060083
 
KNXP - Twentynine Palms, California, USA
Distance from station: NNE 37mi, 60km
Updated: Mon, 18-Jun-2018 3:56am PDT
Clear
Clear
 Wind from W
Wind: W 15 mph , 24 km/h
Temperature: 64°F , 18°C
Dew Point: 34°F , 1°C
Humidity: 32%
Barometer: 29.95 inHg , 1014.2 hPa
Clouds: Clear
Visibility: 10 miles , 16 km
2018/06/18 10:56 KNXP 181056Z AUTO 28013KT 10SM CLR 18/01 A2995 RMK AO2 SLP107 T01780011
KL35 - Big Bear City, California, USA
Distance from station: NW 43mi, 69km
Updated: Mon, 18-Jun-2018 4:15am PDT
Clear
Clear
 Wind from calm
Wind: Calm
Temperature: 32°F , 0°C
Dew Point: 5°F , -15°C
Humidity: 32%
Barometer: 30.08 inHg , 1018.6 hPa
Clouds: Clear
Visibility: 10 miles , 16 km
2018/06/18 11:15 KL35 181115Z AUTO 00000KT 10SM CLR 00/M15 A3008 RMK AO2
 
KF70 - Murrieta/Temecula, California, USA
Distance from station: WSW 45mi, 73km
Updated: Mon, 18-Jun-2018 4:15am PDT
Clear
Clear
 Wind from calm
Wind: Calm
Temperature: 54°F , 12°C
Dew Point: 48°F , 9°C
Humidity: 82%
Barometer: 29.98 inHg , 1015.2 hPa
Clouds: Clear
Visibility: 10 miles , 16 km
2018/06/18 11:15 KF70 181115Z AUTO 00000KT 10SM CLR 12/09 A2998 RMK AO1
KRIV - Riverside/March, California, USA
Distance from station: W 51mi, 82km
Updated: Mon, 18-Jun-2018 1:55am PDT
NOT Current
Partly Cloudy
Partly Cloudy
 Wind from NNW
Wind: NNW 6 mph , 9 km/h
Temperature: 59°F , 15°C
Dew Point: 50°F , 10°C
Humidity: 72%
Barometer: 29.99 inHg , 1015.6 hPa
Clouds: Partly Cloudy
Visibility: 10 miles , 16 km
Cloud details: Partly Cloudy 3500 ft
2018/06/18 08:55 KRIV 180855Z 33005KT 10SM SCT035 15/10 A2999 RMK AO2A SLPNO WND DATA ESTMD ALSTG ESTMD
 
KSBD - San Bernardino, California, USA
Distance from station: WNW 54mi, 86km
Updated: Mon, 18-Jun-2018 4:20am PDT
Overcast
Overcast
 Wind from WSW
Wind: WSW 5 mph , 7 km/h
Temperature: 61°F , 16°C
Dew Point: 52°F , 11°C
Humidity: 72%
Barometer: 29.97 inHg , 1014.9 hPa
Clouds: Overcast
Visibility: 10 miles , 16 km
Cloud details: Mostly Cloudy 2900 ft
Overcast 3800 ft
2018/06/18 11:20 KSBD 181120Z AUTO 25004KT 10SM BKN029 OVC038 16/11 A2997 RMK AO2 T01580105
KRNM - Ramona, California, USA
Distance from station: SSW 60mi, 96km
Updated: Mon, 18-Jun-2018 3:53am PDT
Overcast
Overcast
 Wind from NW
Wind: NW 3 mph , 6 km/h
Temperature: 57°F , 14°C
Dew Point: 52°F , 11°C
Humidity: 82%
Barometer: 29.97 inHg , 1014.9 hPa
Clouds: Overcast
Visibility: 10 miles , 16 km
Cloud details: Overcast 2700 ft
2018/06/18 10:53 KRNM 181053Z AUTO 32003KT 10SM OVC027 14/11 A2997 RMK AO2 SLP138 T01390111
 
KRAL - Riverside, California, USA
Distance from station: W 62mi, 100km
Updated: Mon, 18-Jun-2018 3:53am PDT
Overcast
Overcast
 Wind from W
Wind: W 5 mph , 7 km/h
Temperature: 61°F , 16°C
Dew Point: 52°F , 11°C
Humidity: 72%
Barometer: 29.97 inHg , 1014.9 hPa
Clouds: Overcast
Visibility: 10 miles , 16 km
Cloud details: Overcast 3300 ft
2018/06/18 10:53 KRAL 181053Z AUTO 28004KT 10SM OVC033 16/11 A2997 RMK AO2 SLP136 T01560111
KOKB - Oceanside, California, USA
Distance from station: SW 68mi, 109km
Updated: Mon, 18-Jun-2018 3:52am PDT
Clear
Clear
 Wind from calm
Wind: Calm
Temperature: 59°F , 15°C
Dew Point: 52°F , 11°C
Humidity: 77%
Barometer: 29.96 inHg , 1014.6 hPa
Clouds: Clear
Visibility: 10 miles , 16 km
2018/06/18 10:52 KOKB 181052Z AUTO 00000KT 10SM CLR 15/11 A2996 RMK AO2 SLP144 T01500106
 
KONT - Ontario, California, USA
Distance from station: WNW 71mi, 114km
Updated: Mon, 18-Jun-2018 3:53am PDT
Overcast
Overcast
 Wind from WSW
Wind: WSW 5 mph , 7 km/h
Temperature: 61°F , 16°C
Dew Point: 52°F , 11°C
Humidity: 72%
Barometer: 29.97 inHg , 1014.9 hPa
Clouds: Overcast
Visibility: 10 miles , 16 km
Cloud details: Partly Cloudy 2200 ft
Overcast 3500 ft
2018/06/18 10:53 KONT 181053Z 24004KT 10SM SCT022 OVC035 16/11 A2997 RMK AO2 SLP139 T01560106 $
KNJK - El Centro Naf, California, USA
Distance from station: SSE 78mi, 126km
Updated: Mon, 18-Jun-2018 3:56am PDT

 Wind from N
Wind: N 5 mph , 7 km/h
Temperature: 64°F , 18°C
Dew Point: 37°F , 3°C
Humidity: 37%
Barometer: 29.81 inHg , 1009.5 hPa
Visibility: 10 miles , 16 km
2018/06/18 10:56 KNJK 181056Z AUTO 35004KT 10SM 18/03 A2981 RMK AO2 SLP110 T01830033 $
 
KSEE - San Diego/Santee, California, USA
Distance from station: SSW 74mi, 120km
Updated: Mon, 18-Jun-2018 4:15am PDT
Overcast
Overcast
 Wind from calm
Wind: Calm
Temperature: 63°F , 17°C
Dew Point: 54°F , 12°C
Humidity: 73%
Barometer: 29.96 inHg , 1014.6 hPa
Clouds: Overcast
Visibility: 10 miles , 16 km
Cloud details: Overcast 3600 ft
2018/06/18 11:15 KSEE 181115Z AUTO 00000KT 10SM OVC036 17/12 A2996 RMK AO2
KCNO - Chino, California, USA
Distance from station: W 72mi, 116km
Updated: Mon, 18-Jun-2018 3:53am PDT
Mostly Cloudy
Mostly Cloudy
 Wind from calm
Wind: Calm
Temperature: 59°F , 15°C
Dew Point: 52°F , 11°C
Humidity: 77%
Barometer: 29.98 inHg , 1015.2 hPa
Clouds: Mostly Cloudy
Visibility: 9 miles , 14 km
Cloud details: Few Clouds 3000 ft
Mostly Cloudy 3700 ft
2018/06/18 10:53 KCNO 181053Z AUTO 00000KT 9SM FEW030 BKN037 15/11 A2998 RMK AO2 SLP148 T01500111 $